Time;durP1;ratioP1;P1;durP2;ratioP2;P2;SDS_P1;SDS_P2;PMS_P1;PMS_P2;Temp;Humidity;BMP_temperature;BMP_pressure;BME280_temperature;BME280_humidity;BME280_pressure;Samples;Min_cycle;Max_cycle;Signal;HPM_P1;HPM_P2
2022/05/03 00:01:07;;;;;;;7.60;5.40;;;9.90;83.40;;;;;;4956834;29;20035;-81
2022/05/03 00:03:47;;;;;;;6.40;4.47;;;9.90;83.80;;;;;;4957733;29;20020;-85
2022/05/03 00:06:15;;;;;;;7.70;4.95;;;9.80;84.10;;;;;;4957628;29;20034;-84
2022/05/03 00:08:46;;;;;;;5.28;4.78;;;9.80;84.30;;;;;;4948810;28;20023;-84
2022/05/03 00:11:39;;;;;;;7.13;5.85;;;9.80;84.60;;;;;;4990211;28;20041;-85
2022/05/03 00:14:30;;;;;;;5.88;5.28;;;9.80;84.90;;;;;;4953472;29;20047;-83
2022/05/03 00:16:56;;;;;;;8.55;5.75;;;9.80;84.70;;;;;;4954714;29;20023;-85
2022/05/03 00:19:23;;;;;;;6.90;5.88;;;9.70;84.80;;;;;;4947909;28;20087;-85
2022/05/03 00:21:49;;;;;;;6.38;5.53;;;9.70;84.90;;;;;;4979424;28;20118;-85
2022/05/03 00:24:16;;;;;;;7.70;5.45;;;9.70;85.20;;;;;;4959765;28;20042;-84
2022/05/03 00:26:43;;;;;;;6.80;5.70;;;9.70;85.40;;;;;;4978362;28;20034;-85
2022/05/03 00:29:10;;;;;;;8.93;6.05;;;9.70;85.50;;;;;;4979450;28;20042;-85
2022/05/03 00:31:37;;;;;;;7.88;6.18;;;9.60;85.50;;;;;;4960586;28;20031;-84
2022/05/03 00:34:03;;;;;;;10.30;6.57;;;9.60;85.80;;;;;;4977665;28;20057;-86
2022/05/03 00:36:30;;;;;;;8.00;5.90;;;9.60;86.00;;;;;;4977884;28;20027;-86
2022/05/03 00:38:56;;;;;;;7.38;6.38;;;9.60;86.30;;;;;;4976626;28;20027;-86
2022/05/03 00:41:56;;;;;;;9.77;6.15;;;9.60;86.30;;;;;;4977378;28;20125;-86
2022/05/03 00:47:53;;;;;;;8.03;6.27;;;9.50;86.80;;;;;;4973855;28;20087;-86
2022/05/03 00:50:37;;;;;;;8.82;5.90;;;9.50;86.90;;;;;;4969159;28;20508;-85
2022/05/03 00:53:29;;;;;;;8.57;6.32;;;9.40;87.40;;;;;;4978292;28;20117;-85
2022/05/03 00:56:48;;;;;;;10.38;6.53;;;9.40;87.80;;;;;;4977111;28;20027;-86
2022/05/03 00:59:47;;;;;;;10.43;6.43;;;9.40;87.80;;;;;;4916999;29;20406;-85
2022/05/03 01:02:18;;;;;;;8.38;6.07;;;9.30;88.30;;;;;;4917133;29;20553;-86
2022/05/03 01:05:02;;;;;;;8.48;6.50;;;9.30;88.60;;;;;;4916907;29;20036;-85
2022/05/03 01:07:36;;;;;;;11.23;6.72;;;9.30;89.10;;;;;;4917049;29;20048;-85
2022/05/03 01:10:15;;;;;;;8.40;6.88;;;9.30;89.40;;;;;;4916914;29;20028;-85
2022/05/03 01:13:11;;;;;;;6.82;5.97;;;9.30;89.70;;;;;;4916316;29;20491;-84
2022/05/03 01:15:44;;;;;;;8.55;6.50;;;9.20;90.00;;;;;;4900928;29;20032;-85
2022/05/03 01:18:39;;;;;;;8.60;7.07;;;9.20;90.00;;;;;;4917197;29;20040;-83
2022/05/03 01:21:07;;;;;;;8.30;6.35;;;9.20;90.20;;;;;;4898307;29;20044;-84
2022/05/03 01:24:18;;;;;;;6.93;6.22;;;9.20;90.30;;;;;;4918735;29;20124;-85
2022/05/03 01:26:54;;;;;;;7.93;6.35;;;9.10;90.50;;;;;;4889226;29;20581;-84
2022/05/03 01:29:36;;;;;;;8.07;6.40;;;9.10;90.60;;;;;;4917351;29;20096;-83
2022/05/03 01:32:08;;;;;;;7.97;6.65;;;9.10;90.70;;;;;;4921026;29;20074;-85
2022/05/03 01:34:36;;;;;;;8.55;6.88;;;9.00;90.80;;;;;;4957118;29;20031;-84
2022/05/03 01:37:23;;;;;;;7.70;6.93;;;9.00;90.90;;;;;;4957102;29;20035;-84
2022/05/03 01:40:05;;;;;;;10.98;7.18;;;9.00;91.10;;;;;;4956918;29;20035;-84
2022/05/03 01:42:50;;;;;;;11.27;7.20;;;9.00;91.20;;;;;;4939772;29;20126;-84
2022/05/03 01:45:36;;;;;;;11.13;7.30;;;8.90;91.20;;;;;;4959155;29;20023;-83
2022/05/03 01:50:18;;;;;;;8.82;7.32;;;8.90;91.30;;;;;;4902560;29;20052;-84
2022/05/03 01:51:26;;;;;;;9.48;6.93;;;8.90;91.50;;;;;;4942198;28;20043;-85
2022/05/03 01:54:17;;;;;;;9.30;6.88;;;8.90;91.50;;;;;;4940052;29;20036;-86
2022/05/03 01:56:56;;;;;;;10.40;7.53;;;8.90;91.70;;;;;;4939933;29;20100;-83
2022/05/03 01:59:50;;;;;;;8.35;6.70;;;8.90;91.90;;;;;;4940455;29;20038;-84
2022/05/03 02:02:44;;;;;;;10.38;7.85;;;8.90;92.00;;;;;;4946812;29;20019;-84
2022/05/03 02:05:31;;;;;;;8.13;6.80;;;8.90;92.00;;;;;;4949137;29;20031;-84
2022/05/03 02:07:58;;;;;;;8.40;7.25;;;8.90;92.20;;;;;;4954600;29;20035;-83
2022/05/03 02:10:50;;;;;;;8.07;7.27;;;8.90;92.20;;;;;;4944169;29;20103;-84
2022/05/03 02:16:54;;;;;;;11.10;7.43;;;9.00;92.30;;;;;;4938930;29;20042;-84
2022/05/03 02:19:25;;;;;;;10.70;8.30;;;9.00;92.30;;;;;;4940189;29;20041;-86
2022/05/03 02:22:12;;;;;;;7.55;6.63;;;9.00;92.40;;;;;;4967798;28;20354;-84
2022/05/03 02:25:17;;;;;;;11.70;8.18;;;9.10;92.40;;;;;;4974935;28;20515;-85
2022/05/03 02:27:52;;;;;;;8.82;7.05;;;9.20;92.30;;;;;;4972961;28;20076;-84
2022/05/03 02:30:20;;;;;;;7.13;6.18;;;9.30;92.30;;;;;;4968141;28;20359;-85
2022/05/03 02:33:25;;;;;;;8.82;7.22;;;9.30;92.30;;;;;;4945347;29;20085;-83
2022/05/03 02:35:58;;;;;;;11.77;7.22;;;9.40;92.20;;;;;;4967301;29;20043;-83
2022/05/03 02:38:50;;;;;;;8.43;6.93;;;9.40;92.20;;;;;;4977599;28;20550;-83
2022/05/03 02:41:19;;;;;;;8.88;6.95;;;9.50;92.20;;;;;;4967433;28;20039;-82
2022/05/03 02:43:47;;;;;;;11.43;6.88;;;9.50;92.20;;;;;;4956509;28;20059;-83
2022/05/03 02:46:31;;;;;;;8.90;7.22;;;9.50;92.30;;;;;;4975664;28;20863;-83
2022/05/03 02:49:04;;;;;;;9.75;6.47;;;9.50;92.20;;;;;;4975605;28;20054;-83
2022/05/03 02:51:52;;;;;;;9.07;7.00;;;9.60;92.10;;;;;;4958458;28;20038;-84
2022/05/03 02:54:54;;;;;;;7.70;6.90;;;9.60;92.10;;;;;;4975817;28;20592;-84
2022/05/03 02:57:47;;;;;;;6.68;5.97;;;9.60;92.00;;;;;;4976726;28;20023;-85
2022/05/03 03:03:19;;;;;;;8.75;5.88;;;9.70;92.00;;;;;;4978059;28;20038;-83
2022/05/03 03:05:53;;;;;;;10.68;6.90;;;9.70;91.90;;;;;;4958155;28;20019;-84
2022/05/03 03:08:21;;;;;;;10.23;6.30;;;9.80;91.90;;;;;;4958464;28;20087;-85
2022/05/03 03:11:01;;;;;;;8.00;6.72;;;9.90;91.80;;;;;;4974755;28;20022;-86
2022/05/03 03:14:12;;;;;;;10.10;6.70;;;10.00;91.60;;;;;;4957418;28;20034;-84
2022/05/03 03:16:52;;;;;;;8.52;7.10;;;10.10;91.30;;;;;;4929270;28;20381;-85
2022/05/03 03:19:39;;;;;;;11.45;7.03;;;10.10;91.30;;;;;;4937981;29;20062;-86
2022/05/03 03:22:15;;;;;;;9.23;6.88;;;10.10;91.20;;;;;;4955499;29;20027;-86
2022/05/03 03:24:42;;;;;;;8.25;6.97;;;10.20;91.20;;;;;;4955460;29;20047;-86
2022/05/03 03:27:11;;;;;;;10.77;7.13;;;10.30;91.10;;;;;;4956973;29;20059;-85
2022/05/03 03:29:39;;;;;;;7.82;6.68;;;10.30;90.90;;;;;;4957055;29;20069;-86
2022/05/03 03:32:09;;;;;;;8.43;7.07;;;10.30;90.80;;;;;;4959144;29;20530;-87
2022/05/03 03:34:39;;;;;;;7.55;6.60;;;10.40;90.70;;;;;;4964179;28;20031;-85
2022/05/03 03:37:07;;;;;;;7.53;6.55;;;10.40;90.80;;;;;;4983876;28;20023;-86
2022/05/03 03:39:34;;;;;;;8.45;7.32;;;10.50;90.70;;;;;;4974449;28;20023;-85
2022/05/03 03:42:07;;;;;;;7.97;6.40;;;10.60;90.40;;;;;;4957038;28;20113;-86
2022/05/03 03:44:33;;;;;;;8.13;6.18;;;10.70;90.20;;;;;;4974894;28;20029;-88
2022/05/03 03:47:01;;;;;;;7.93;6.65;;;10.80;90.10;;;;;;4975219;28;20070;-85
2022/05/03 03:49:30;;;;;;;7.15;6.20;;;10.90;89.80;;;;;;4956738;28;20037;-86
2022/05/03 03:51:58;;;;;;;11.10;6.60;;;11.00;89.50;;;;;;4975235;28;20118;-85
2022/05/03 03:54:25;;;;;;;8.98;7.00;;;11.20;89.20;;;;;;4957180;28;20121;-85
2022/05/03 03:56:52;;;;;;;7.70;6.30;;;11.60;88.20;;;;;;4976838;28;20383;-85
2022/05/03 03:59:19;;;;;;;7.95;6.63;;;11.80;86.90;;;;;;4976977;28;20036;-85
2022/05/03 04:01:45;;;;;;;11.48;6.72;;;12.00;85.50;;;;;;4994314;28;20034;-85
2022/05/03 04:04:12;;;;;;;7.95;6.30;;;12.10;85.10;;;;;;4994042;28;20022;-86
2022/05/03 04:06:38;;;;;;;15.33;7.03;;;12.30;84.40;;;;;;4993717;28;20023;-84
2022/05/03 04:09:05;;;;;;;9.23;6.72;;;12.50;83.40;;;;;;4986199;28;20086;-84
2022/05/03 04:11:44;;;;;;;8.98;7.07;;;12.60;82.40;;;;;;4962074;28;20050;-84
2022/05/03 04:14:14;;;;;;;7.75;6.97;;;12.70;81.80;;;;;;4984922;28;20027;-84
2022/05/03 04:16:41;;;;;;;8.82;6.85;;;12.70;81.60;;;;;;4972600;28;20023;-85
2022/05/03 04:19:07;;;;;;;7.67;6.80;;;12.70;81.50;;;;;;4979784;28;20119;-86
2022/05/03 04:21:33;;;;;;;8.68;6.68;;;12.70;81.20;;;;;;4976201;28;20432;-85
2022/05/03 04:23:59;;;;;;;11.90;7.03;;;12.70;81.00;;;;;;4957679;28;20058;-86
2022/05/03 04:26:26;;;;;;;10.38;7.03;;;12.80;80.90;;;;;;4973241;28;20097;-85
2022/05/03 04:28:59;;;;;;;12.27;7.15;;;13.00;80.90;;;;;;4974236;28;20035;-85
2022/05/03 04:31:29;;;;;;;7.43;6.40;;;13.00;79.80;;;;;;4974309;28;20027;-87
2022/05/03 04:33:56;;;;;;;8.10;7.15;;;13.10;79.40;;;;;;4975426;28;20023;-82
2022/05/03 04:36:23;;;;;;;8.63;6.60;;;13.20;79.00;;;;;;4973874;28;20065;-85
2022/05/03 04:38:49;;;;;;;8.75;6.78;;;13.20;78.90;;;;;;4973471;28;20033;-84
2022/05/03 04:41:15;;;;;;;8.57;6.53;;;13.40;79.20;;;;;;4973428;28;20089;-85
2022/05/03 04:43:42;;;;;;;8.27;7.35;;;13.50;78.00;;;;;;4973192;28;20461;-85
2022/05/03 04:46:07;;;;;;;7.67;6.50;;;13.90;77.80;;;;;;4973700;28;20496;-86
2022/05/03 04:48:34;;;;;;;9.40;7.32;;;14.40;75.70;;;;;;4975489;28;20047;-84
2022/05/03 04:50:59;;;;;;;7.93;6.70;;;14.40;74.50;;;;;;4977596;28;20019;-84
2022/05/03 04:53:25;;;;;;;7.05;6.15;;;14.70;73.80;;;;;;4963625;28;20027;-82
2022/05/03 04:55:51;;;;;;;8.85;7.30;;;15.20;72.70;;;;;;4959394;28;20019;-84
2022/05/03 04:58:17;;;;;;;8.52;7.72;;;15.40;71.20;;;;;;4975483;28;20023;-84
2022/05/03 05:00:44;;;;;;;10.57;7.22;;;15.40;70.50;;;;;;4975067;28;20077;-85
2022/05/03 05:03:09;;;;;;;11.73;8.02;;;15.40;70.20;;;;;;4973904;28;20055;-84
2022/05/03 05:05:35;;;;;;;13.57;7.03;;;15.80;70.00;;;;;;4973712;28;20030;-83
2022/05/03 05:08:05;;;;;;;11.70;7.32;;;16.10;68.10;;;;;;4975729;28;20073;-84
2022/05/03 05:10:32;;;;;;;10.60;7.15;;;16.60;67.00;;;;;;4976583;28;20646;-84
2022/05/03 05:13:00;;;;;;;12.25;7.75;;;16.90;65.90;;;;;;4976648;28;20031;-84
2022/05/03 05:15:26;;;;;;;12.52;7.38;;;17.10;64.60;;;;;;4976199;28;20023;-83
2022/05/03 05:17:53;;;;;;;8.93;7.40;;;17.20;63.70;;;;;;4975892;28;20031;-83
2022/05/03 05:20:20;;;;;;;8.63;7.75;;;17.10;63.60;;;;;;4987335;28;20616;-82
2022/05/03 05:22:46;;;;;;;9.07;6.53;;;17.10;63.60;;;;;;4995986;28;20031;-83
2022/05/03 05:25:13;;;;;;;12.18;7.47;;;17.10;63.20;;;;;;4978245;28;20023;-84
2022/05/03 05:27:39;;;;;;;10.98;7.05;;;17.00;63.40;;;;;;4996237;28;20035;-85
2022/05/03 05:30:08;;;;;;;8.35;7.45;;;16.80;63.80;;;;;;4988643;28;20057;-85
2022/05/03 05:32:35;;;;;;;8.52;7.07;;;16.90;64.10;;;;;;4977803;28;20023;-86
2022/05/03 05:35:01;;;;;;;8.27;6.47;;;17.10;63.60;;;;;;4959042;28;20373;-85
2022/05/03 05:37:29;;;;;;;9.82;6.70;;;17.50;62.70;;;;;;4979109;28;20547;-85
2022/05/03 05:39:55;;;;;;;10.85;6.90;;;17.90;61.60;;;;;;4979244;28;20031;-84
2022/05/03 05:42:21;;;;;;;9.20;7.10;;;18.40;60.20;;;;;;4968106;28;20069;-83
2022/05/03 05:44:47;;;;;;;12.90;6.43;;;18.90;58.90;;;;;;4993787;28;20080;-82
2022/05/03 05:47:13;;;;;;;7.10;6.30;;;19.10;57.90;;;;;;4987360;28;20120;-83
2022/05/03 05:49:39;;;;;;;8.73;6.70;;;19.50;56.90;;;;;;4974718;28;20030;-84
2022/05/03 05:54:49;;;;;;;8.25;6.22;;;19.80;55.40;;;;;;4976735;28;20098;-83
2022/05/03 05:57:15;;;;;;;11.95;6.65;;;20.50;54.00;;;;;;4976038;28;20048;-82
2022/05/03 05:59:41;;;;;;;10.85;6.78;;;20.20;53.40;;;;;;4966092;28;20062;-85
2022/05/03 06:02:07;;;;;;;8.40;6.05;;;20.10;53.70;;;;;;4978139;28;20031;-84
2022/05/03 06:04:33;;;;;;;12.87;7.20;;;20.10;53.80;;;;;;4978252;28;20029;-85
2022/05/03 06:06:59;;;;;;;10.95;7.00;;;20.60;53.80;;;;;;4995122;28;20105;-83
2022/05/03 06:09:25;;;;;;;8.32;6.22;;;21.80;51.90;;;;;;4977534;28;20415;-84
2022/05/03 06:11:51;;;;;;;8.20;5.80;;;23.00;48.60;;;;;;4995290;28;20023;-85
2022/05/03 06:14:17;;;;;;;9.43;5.38;;;23.60;46.70;;;;;;4985993;28;20031;-84
2022/05/03 06:16:54;;;;;;;10.40;6.35;;;24.60;44.90;;;;;;4975391;28;20031;-84
2022/05/03 06:19:21;;;;;;;8.45;5.95;;;25.60;43.80;;;;;;4981527;28;20019;-87
2022/05/03 06:21:47;;;;;;;12.07;6.20;;;26.50;41.60;;;;;;4999904;28;20057;-83
2022/05/03 06:24:13;;;;;;;7.80;5.68;;;27.00;40.00;;;;;;5004089;28;20042;-86
2022/05/03 06:26:40;;;;;;;9.40;5.87;;;27.10;39.60;;;;;;5004218;28;20030;-85
2022/05/03 06:29:09;;;;;;;7.47;5.90;;;26.60;39.40;;;;;;5004087;28;20058;-84
2022/05/03 06:31:36;;;;;;;11.60;5.80;;;26.00;39.90;;;;;;4995198;28;20106;-85
2022/05/03 06:34:03;;;;;;;8.27;5.22;;;25.20;40.90;;;;;;4960725;28;20038;-84
2022/05/03 06:36:29;;;;;;;7.60;6.07;;;24.70;41.40;;;;;;4983041;28;20444;-84
2022/05/03 06:38:55;;;;;;;7.75;5.28;;;24.20;42.30;;;;;;4979190;28;20122;-84
2022/05/03 06:41:21;;;;;;;6.40;5.00;;;24.90;42.10;;;;;;4980415;28;20042;-82
2022/05/03 06:43:46;;;;;;;9.82;5.78;;;25.40;40.70;;;;;;4978200;28;20081;-83
2022/05/03 06:46:13;;;;;;;8.07;5.65;;;25.20;40.50;;;;;;4975931;28;20038;-82
2022/05/03 06:48:39;;;;;;;8.15;5.38;;;24.70;41.00;;;;;;4974788;28;20943;-85
2022/05/03 06:51:05;;;;;;;8.40;5.30;;;24.00;42.30;;;;;;4975064;28;20042;-87
2022/05/03 06:53:31;;;;;;;8.77;5.60;;;24.40;42.80;;;;;;4978330;28;20124;-86
2022/05/03 06:55:57;;;;;;;9.68;5.30;;;25.30;41.50;;;;;;4996462;28;20065;-85
2022/05/03 06:58:23;;;;;;;6.65;5.57;;;25.70;40.20;;;;;;4994397;28;20034;-87
2022/05/03 07:00:49;;;;;;;9.60;6.68;;;25.00;40.50;;;;;;4995088;28;20040;-85
2022/05/03 07:03:17;;;;;;;8.48;5.88;;;24.00;42.00;;;;;;4994981;28;20389;-85
2022/05/03 07:05:43;;;;;;;9.60;6.32;;;23.30;43.30;;;;;;4966566;28;20047;-88
2022/05/03 07:08:10;;;;;;;9.98;6.60;;;22.00;45.00;;;;;;4976519;28;20120;-87
2022/05/03 07:10:42;;;;;;;10.32;5.43;;;20.90;47.60;;;;;;4975837;28;20031;-87
2022/05/03 07:13:15;;;;;;;8.15;7.03;;;20.80;48.70;;;;;;4954407;29;20055;-87
2022/05/03 07:15:42;;;;;;;9.05;5.93;;;21.70;47.80;;;;;;4954937;29;20031;-87
2022/05/03 07:23:36;;;;;;;11.88;6.20;;;22.40;46.10;;;;;;4993999;28;20050;-86
2022/05/03 07:26:02;;;;;;;12.20;6.55;;;22.40;46.10;;;;;;4994876;28;20439;-85
2022/05/03 07:28:28;;;;;;;12.60;5.70;;;22.00;46.00;;;;;;4984538;28;20047;-85
2022/05/03 07:30:53;;;;;;;6.03;4.93;;;21.40;47.40;;;;;;4957629;28;20080;-85
2022/05/03 07:33:19;;;;;;;9.40;6.65;;;20.90;47.60;;;;;;4974399;28;20034;-83
2022/05/03 07:35:45;;;;;;;6.97;5.93;;;19.90;49.40;;;;;;4974500;28;20030;-85
2022/05/03 07:38:11;;;;;;;9.38;6.68;;;19.50;50.70;;;;;;4974056;28;20492;-87
2022/05/03 07:40:36;;;;;;;8.13;5.95;;;19.20;51.50;;;;;;4975671;28;20034;-86
2022/05/03 07:43:03;;;;;;;9.23;5.55;;;20.00;51.10;;;;;;4995361;28;20030;-86
2022/05/03 07:45:29;;;;;;;8.57;6.20;;;22.30;48.20;;;;;;4996582;28;20041;-83
2022/05/03 07:47:55;;;;;;;8.85;5.28;;;24.60;44.00;;;;;;4997338;28;20488;-84
2022/05/03 07:50:22;;;;;;;9.75;5.07;;;26.60;41.10;;;;;;4983552;28;20051;-86
2022/05/03 07:52:48;;;;;;;9.18;5.00;;;28.30;38.30;;;;;;4989416;28;20026;-87
2022/05/03 07:55:14;;;;;;;13.35;5.78;;;27.80;36.60;;;;;;4992802;28;20468;-86
2022/05/03 07:57:39;;;;;;;10.18;4.80;;;26.60;36.70;;;;;;4975318;28;20069;-87
2022/05/03 08:00:06;;;;;;;6.75;4.90;;;25.20;37.80;;;;;;4992644;28;20114;-82
2022/05/03 08:02:32;;;;;;;11.07;5.55;;;25.10;38.50;;;;;;4977244;28;20385;-84
2022/05/03 08:04:58;;;;;;;7.13;4.68;;;25.10;38.70;;;;;;4956684;28;20055;-84
2022/05/03 08:07:24;;;;;;;7.40;4.80;;;24.20;38.60;;;;;;4952744;29;20539;-83
2022/05/03 08:09:49;;;;;;;7.53;4.85;;;22.90;40.30;;;;;;4967742;28;20580;-83
2022/05/03 08:12:16;;;;;;;8.27;5.07;;;21.80;41.60;;;;;;4992316;28;20031;-84
2022/05/03 08:14:42;;;;;;;9.23;4.95;;;20.70;43.90;;;;;;4976757;28;20054;-86
2022/05/03 08:17:08;;;;;;;6.82;4.93;;;20.00;45.80;;;;;;4974723;28;20027;-88
2022/05/03 08:19:34;;;;;;;8.25;5.28;;;19.90;45.50;;;;;;4974510;28;20023;-84
2022/05/03 08:22:00;;;;;;;8.32;4.50;;;20.50;45.20;;;;;;4975635;28;20102;-84
2022/05/03 08:24:27;;;;;;;9.73;4.38;;;22.00;42.50;;;;;;4957278;28;20028;-82
2022/05/03 08:26:53;;;;;;;6.32;4.38;;;23.90;40.40;;;;;;4976326;28;20488;-85
2022/05/03 08:29:19;;;;;;;8.37;4.50;;;25.30;37.00;;;;;;4971580;28;20465;-79
2022/05/03 08:31:46;;;;;;;4.07;3.50;;;25.30;36.20;;;;;;4965541;28;20035;-80
2022/05/03 08:34:13;;;;;;;7.25;4.00;;;24.70;35.00;;;;;;4953046;29;20485;-81
2022/05/03 08:36:39;;;;;;;6.13;4.17;;;23.40;36.90;;;;;;4968569;28;20087;-81
2022/05/03 08:42:02;;;;;;;9.85;4.00;;;21.00;38.60;;;;;;4978851;28;20038;-80
2022/05/03 08:44:29;;;;;;;11.85;4.65;;;20.90;40.10;;;;;;4977528;28;20038;-78
2022/05/03 08:46:56;;;;;;;12.35;3.88;;;22.60;38.80;;;;;;4978360;28;20058;-83
2022/05/03 08:49:30;;;;;;;8.60;3.15;;;24.30;36.60;;;;;;4980895;28;20447;-85
2022/05/03 08:51:56;;;;;;;7.57;3.95;;;25.80;33.80;;;;;;4982222;28;20031;-86
2022/05/03 08:54:22;;;;;;;5.63;3.73;;;26.00;33.10;;;;;;4960900;28;20399;-90
2022/05/03 08:56:48;;;;;;;11.25;3.42;;;26.50;32.70;;;;;;4961279;28;20027;-88
2022/05/03 08:59:14;;;;;;;11.35;3.75;;;26.70;32.40;;;;;;4978987;28;20129;-88
2022/05/03 09:01:40;;;;;;;4.55;2.85;;;28.00;32.00;;;;;;4980974;28;20023;-90
2022/05/03 09:04:06;;;;;;;7.75;3.38;;;29.00;29.60;;;;;;4965745;28;20544;-86
2022/05/03 09:06:47;;;;;;;5.07;3.22;;;27.10;29.70;;;;;;4980965;28;20026;-85
2022/05/03 09:09:14;;;;;;;4.28;3.00;;;25.90;31.90;;;;;;4959469;28;20438;-88
2022/05/03 09:11:51;;;;;;;16.23;4.35;;;26.50;31.20;;;;;;4960590;28;20115;-90
2022/05/03 09:14:37;;;;;;;9.32;3.63;;;26.20;30.70;;;;;;4978144;28;20391;-88
2022/05/03 09:17:04;;;;;;;9.50;3.53;;;24.80;31.60;;;;;;4961490;28;20038;-89
2022/05/03 09:19:30;;;;;;;8.05;3.15;;;24.20;32.90;;;;;;4978769;28;20026;-86
2022/05/03 09:25:02;;;;;;;7.20;2.78;;;26.90;31.30;;;;;;4977578;28;20030;-91
2022/05/03 09:27:28;;;;;;;6.68;3.13;;;28.40;29.80;;;;;;4961856;28;20034;-89
2022/05/03 09:30:09;;;;;;;7.28;3.55;;;28.20;29.00;;;;;;4974938;28;20106;-89
2022/05/03 09:32:41;;;;;;;12.27;3.63;;;26.80;29.50;;;;;;4944855;29;20023;-89
2022/05/03 09:35:30;;;;;;;9.60;3.55;;;24.90;30.50;;;;;;4975929;29;20023;-90
2022/05/03 09:37:56;;;;;;;6.50;3.15;;;23.50;32.90;;;;;;4977990;29;20035;-87
2022/05/03 09:40:23;;;;;;;9.03;3.60;;;23.90;33.40;;;;;;4970572;29;20045;-88
2022/05/03 09:42:56;;;;;;;8.52;3.80;;;24.10;32.50;;;;;;4978098;28;20280;-88
2022/05/03 09:45:27;;;;;;;6.72;2.85;;;23.70;33.00;;;;;;4985539;28;20034;-90
2022/05/03 09:47:54;;;;;;;5.38;3.00;;;24.30;33.30;;;;;;4992980;28;20047;-85
2022/05/03 09:50:29;;;;;;;5.32;3.28;;;25.10;32.00;;;;;;4971033;28;20027;-87
2022/05/03 09:52:57;;;;;;;5.20;3.38;;;25.70;31.90;;;;;;4985664;28;20033;-88
2022/05/03 09:55:34;;;;;;;6.35;3.15;;;27.00;30.80;;;;;;5005390;28;20022;-90
2022/05/03 09:58:03;;;;;;;7.18;2.92;;;28.50;30.10;;;;;;4976811;28;20078;-88
2022/05/03 10:00:31;;;;;;;6.20;3.42;;;28.90;29.30;;;;;;4965216;28;20389;-89
2022/05/03 10:02:59;;;;;;;5.93;3.45;;;28.00;29.10;;;;;;4982444;28;20038;-87
2022/05/03 10:05:25;;;;;;;4.18;3.22;;;27.10;30.00;;;;;;4962566;28;20030;-92
2022/05/03 10:07:54;;;;;;;6.30;3.47;;;26.60;30.10;;;;;;4979373;28;20058;-89
2022/05/03 10:10:21;;;;;;;9.45;3.92;;;25.80;30.60;;;;;;4984130;28;20019;-90
2022/05/03 10:12:49;;;;;;;4.82;2.90;;;25.10;31.00;;;;;;4990426;28;20027;-89
2022/05/03 10:21:03;;;;;;;10.45;3.38;;;24.30;32.00;;;;;;4979130;28;20026;-85
2022/05/03 10:23:35;;;;;;;9.57;3.28;;;23.60;32.50;;;;;;4967368;28;20030;-87
2022/05/03 10:26:09;;;;;;;11.35;3.47;;;23.00;33.40;;;;;;4967922;28;20051;-87
2022/05/03 10:29:07;;;;;;;11.10;3.30;;;22.80;34.00;;;;;;4977916;28;20045;-88
2022/05/03 10:32:03;;;;;;;8.82;3.55;;;22.20;34.60;;;;;;4960387;28;20027;-89
2022/05/03 10:34:45;;;;;;;12.10;3.08;;;21.70;35.40;;;;;;4948855;29;20035;-88
2022/05/03 10:37:19;;;;;;;9.38;4.43;;;21.50;36.10;;;;;;4943863;29;20031;-89
2022/05/03 10:39:57;;;;;;;4.55;3.10;;;21.30;36.70;;;;;;4962667;29;20034;-88
2022/05/03 10:42:25;;;;;;;9.45;3.75;;;21.00;36.90;;;;;;4958423;29;20020;-86
2022/05/03 10:45:07;;;;;;;4.88;3.30;;;20.50;37.50;;;;;;4958217;29;20374;-88
2022/05/03 10:47:47;;;;;;;7.32;3.85;;;20.30;38.20;;;;;;4941542;29;20186;-89
2022/05/03 10:50:16;;;;;;;6.10;3.72;;;20.10;38.60;;;;;;4967586;28;20039;-90
2022/05/03 10:53:05;;;;;;;10.38;3.17;;;20.10;38.90;;;;;;4956691;29;20027;-88
2022/05/03 10:55:35;;;;;;;5.00;2.90;;;20.00;39.50;;;;;;4966824;29;20023;-83
2022/05/03 10:58:18;;;;;;;7.30;3.35;;;20.00;39.10;;;;;;4959679;29;20030;-83
2022/05/03 11:01:05;;;;;;;7.40;3.75;;;20.10;39.20;;;;;;4944725;29;20070;-87
2022/05/03 11:03:32;;;;;;;7.50;3.50;;;20.00;39.40;;;;;;4951480;28;20026;-83
2022/05/03 11:06:18;;;;;;;6.32;3.42;;;19.90;38.70;;;;;;4974994;28;20395;-80
2022/05/03 11:09:08;;;;;;;6.68;3.70;;;19.70;38.60;;;;;;4954211;29;20195;-80
2022/05/03 11:11:42;;;;;;;5.07;3.55;;;19.60;39.10;;;;;;4966255;28;20027;-83
2022/05/03 11:16:47;;;;;;;6.07;3.15;;;19.70;39.60;;;;;;4967853;28;20153;-81
2022/05/03 11:19:18;;;;;;;8.98;4.25;;;19.50;39.20;;;;;;4960896;28;20027;-84
2022/05/03 11:21:46;;;;;;;6.70;3.42;;;19.50;38.90;;;;;;4974582;28;20484;-83
2022/05/03 11:24:23;;;;;;;7.50;3.13;;;19.50;38.90;;;;;;4949636;29;20027;-84
2022/05/03 11:26:51;;;;;;;7.07;3.17;;;19.40;39.00;;;;;;4956546;29;20034;-84
2022/05/03 11:29:18;;;;;;;6.53;2.95;;;19.30;39.00;;;;;;4985548;28;20066;-83
2022/05/03 11:31:49;;;;;;;8.07;3.17;;;19.30;38.80;;;;;;4961740;28;20023;-84
2022/05/03 11:34:17;;;;;;;6.25;2.70;;;19.30;38.80;;;;;;4975947;28;20033;-82
2022/05/03 11:36:46;;;;;;;7.30;3.97;;;19.40;38.90;;;;;;4974679;28;20026;-83
2022/05/03 11:39:13;;;;;;;8.10;3.38;;;19.30;38.80;;;;;;4976570;28;20027;-82
2022/05/03 11:41:39;;;;;;;5.38;3.17;;;19.20;39.10;;;;;;4974413;28;20026;-84
2022/05/03 11:44:05;;;;;;;9.23;2.97;;;19.20;39.50;;;;;;4974664;28;20027;-86
2022/05/03 11:46:32;;;;;;;13.27;3.95;;;19.20;39.00;;;;;;4974705;28;20388;-84
2022/05/03 11:49:01;;;;;;;4.93;2.92;;;19.20;39.10;;;;;;4973895;28;20047;-85
2022/05/03 11:57:12;;;;;;;8.07;3.45;;;18.60;39.80;;;;;;4966676;28;20447;-79
2022/05/03 11:59:39;;;;;;;8.82;3.25;;;18.60;40.80;;;;;;4973698;28;20473;-80
2022/05/03 12:02:19;;;;;;;6.03;3.10;;;18.70;40.20;;;;;;4973580;28;20110;-83
2022/05/03 12:05:03;;;;;;;5.30;2.65;;;18.80;40.30;;;;;;4973475;28;20392;-81
2022/05/03 12:07:36;;;;;;;6.72;2.60;;;18.80;39.90;;;;;;4955386;28;20027;-80
2022/05/03 12:10:15;;;;;;;6.55;2.58;;;18.80;38.50;;;;;;4972981;28;20035;-88
2022/05/03 12:12:43;;;;;;;4.28;2.08;;;18.70;38.40;;;;;;4973276;28;20030;-84
2022/05/03 12:15:16;;;;;;;5.80;2.80;;;18.70;38.20;;;;;;4947118;28;20042;-83
2022/05/03 12:18:01;;;;;;;6.07;2.40;;;18.80;38.00;;;;;;4958311;28;20031;-81
2022/05/03 12:20:47;;;;;;;8.93;2.72;;;18.90;38.30;;;;;;4965530;28;20059;-84
2022/05/03 12:23:15;;;;;;;7.38;3.63;;;18.70;38.80;;;;;;4958819;29;20031;-84
2022/05/03 12:25:55;;;;;;;4.43;2.45;;;18.70;38.80;;;;;;4967636;28;20030;-85
2022/05/03 12:28:35;;;;;;;7.57;2.92;;;18.80;39.00;;;;;;4961450;28;20074;-84
2022/05/03 12:31:04;;;;;;;8.82;3.05;;;18.90;38.40;;;;;;4965968;28;20047;-85
2022/05/03 12:33:30;;;;;;;4.15;2.22;;;18.90;38.50;;;;;;4961695;28;20094;-84
2022/05/03 12:35:56;;;;;;;3.92;2.30;;;18.90;38.70;;;;;;4960895;28;20027;-85
2022/05/03 12:38:24;;;;;;;5.82;2.78;;;18.90;38.90;;;;;;4979225;28;20420;-89
2022/05/03 12:40:59;;;;;;;8.27;2.65;;;18.90;37.90;;;;;;4979236;28;20023;-82
2022/05/03 12:43:29;;;;;;;4.10;2.42;;;19.00;37.80;;;;;;4978000;28;20382;-85
2022/05/03 12:46:00;;;;;;;9.05;2.63;;;19.10;37.90;;;;;;4977220;28;20027;-87
2022/05/03 12:48:28;;;;;;;8.63;2.70;;;19.10;37.90;;;;;;4959789;28;20074;-85
2022/05/03 12:50:55;;;;;;;5.40;2.20;;;19.10;37.90;;;;;;4954618;29;20030;-80
2022/05/03 12:53:35;;;;;;;8.82;3.22;;;19.00;37.60;;;;;;4972423;28;20053;-81
2022/05/03 12:58:48;;;;;;;6.95;2.25;;;18.70;38.40;;;;;;4958169;29;20563;-82
2022/05/03 13:01:15;;;;;;;4.88;2.97;;;18.70;38.50;;;;;;4959792;29;20144;-82
2022/05/03 13:03:41;;;;;;;6.70;2.50;;;18.70;38.30;;;;;;4963592;29;20035;-80
2022/05/03 13:06:08;;;;;;;5.30;2.75;;;18.70;38.40;;;;;;4968737;29;20087;-80
2022/05/03 13:08:34;;;;;;;6.97;2.42;;;18.70;38.40;;;;;;4972423;28;20027;-84
2022/05/03 13:11:00;;;;;;;7.72;2.92;;;18.80;38.30;;;;;;4964552;28;20029;-84
2022/05/03 13:13:26;;;;;;;5.35;2.47;;;18.70;38.20;;;;;;4979026;28;20391;-84
2022/05/03 13:15:52;;;;;;;6.05;2.60;;;18.60;38.30;;;;;;4977961;28;20026;-82
2022/05/03 13:18:18;;;;;;;8.65;2.67;;;18.70;38.60;;;;;;4977340;28;20027;-82
2022/05/03 13:20:43;;;;;;;5.03;3.05;;;18.70;38.80;;;;;;4976874;28;20031;-82
2022/05/03 13:23:12;;;;;;;8.57;3.55;;;18.70;39.00;;;;;;4977140;28;20026;-81
2022/05/03 13:25:38;;;;;;;5.75;2.60;;;18.80;39.00;;;;;;4976708;28;20038;-83
2022/05/03 13:28:07;;;;;;;5.75;3.15;;;18.90;38.60;;;;;;4977811;28;20428;-81
2022/05/03 13:30:33;;;;;;;7.40;2.42;;;18.90;38.70;;;;;;4965419;28;20027;-82
2022/05/03 13:33:00;;;;;;;11.05;2.58;;;19.10;38.60;;;;;;4983474;28;20033;-83
2022/05/03 13:40:56;;;;;;;10.38;3.53;;;18.90;38.60;;;;;;4983977;28;20149;-86
2022/05/03 13:43:22;;;;;;;4.85;2.63;;;19.00;38.60;;;;;;4959430;28;20501;-84
2022/05/03 13:45:49;;;;;;;3.80;2.40;;;19.20;38.00;;;;;;4956078;29;20031;-82
2022/05/03 13:48:16;;;;;;;9.63;2.30;;;19.30;37.70;;;;;;4957132;29;20043;-82
2022/05/03 13:50:42;;;;;;;8.73;2.30;;;19.30;37.50;;;;;;4957922;28;20419;-81
2022/05/03 13:53:09;;;;;;;5.73;3.03;;;19.10;37.20;;;;;;4957726;28;20031;-83
2022/05/03 13:55:39;;;;;;;8.30;2.63;;;18.90;37.60;;;;;;4975202;28;20086;-83
2022/05/03 13:58:09;;;;;;;13.73;2.58;;;18.80;38.00;;;;;;4975332;28;20070;-81